Time;durP1;ratioP1;P1;durP2;ratioP2;P2;SDS_P1;SDS_P2;PMS_P1;PMS_P2;Temp;Humidity;BMP_temperature;BMP_pressure;BME280_temperature;BME280_humidity;BME280_pressure;Samples;Min_cycle;Max_cycle;Signal;HPM_P1;HPM_P2
2022/11/02 00:00:46;;;;;;;16.55;7.70;;;;;;;;;;10406811;28;20053;-68
2022/11/02 00:05:46;;;;;;;21.63;7.47;;;;;;;;;;10396947;28;20053;-70
2022/11/02 00:10:46;;;;;;;15.13;6.75;;;;;;;;;;10397916;28;20040;-66
2022/11/02 00:15:47;;;;;;;12.68;6.82;;;;;;;;;;10402173;28;20615;-72
2022/11/02 00:20:47;;;;;;;15.27;7.00;;;;;;;;;;10394176;28;20501;-72
2022/11/02 00:25:49;;;;;;;10.73;6.67;;;;;;;;;;10403132;28;20034;-68
2022/11/02 00:30:49;;;;;;;13.88;7.18;;;;;;;;;;10395264;28;20397;-72
2022/11/02 00:35:49;;;;;;;9.73;6.47;;;;;;;;;;10396408;28;20048;-69
2022/11/02 00:40:49;;;;;;;11.87;6.03;;;;;;;;;;10406332;28;20619;-71
2022/11/02 00:45:50;;;;;;;10.63;6.30;;;;;;;;;;10406661;28;20045;-71
2022/11/02 00:50:50;;;;;;;11.77;6.55;;;;;;;;;;10407435;28;20369;-64
2022/11/02 00:55:52;;;;;;;12.48;6.57;;;;;;;;;;10406144;28;20057;-68
2022/11/02 01:00:54;;;;;;;11.02;6.00;;;;;;;;;;10395824;28;20057;-68
2022/11/02 01:05:54;;;;;;;10.23;5.65;;;;;;;;;;10402752;28;20026;-66
2022/11/02 01:10:55;;;;;;;9.73;5.90;;;;;;;;;;10405530;28;20044;-68
2022/11/02 01:15:55;;;;;;;9.40;6.47;;;;;;;;;;10402418;28;20037;-64
2022/11/02 01:20:56;;;;;;;8.20;5.80;;;;;;;;;;10406377;28;20068;-68
2022/11/02 01:25:56;;;;;;;10.57;6.93;;;;;;;;;;10401736;28;20499;-70
2022/11/02 01:30:57;;;;;;;8.05;5.93;;;;;;;;;;10402716;28;20037;-64
2022/11/02 01:35:58;;;;;;;9.88;6.25;;;;;;;;;;10400959;28;20030;-69
2022/11/02 01:40:58;;;;;;;10.18;6.10;;;;;;;;;;10385051;28;20026;-68
2022/11/02 01:45:59;;;;;;;8.60;5.82;;;;;;;;;;10403764;28;20053;-69
2022/11/02 01:51:00;;;;;;;10.02;6.63;;;;;;;;;;10412520;28;20029;-68
2022/11/02 01:56:01;;;;;;;8.68;6.05;;;;;;;;;;10412400;28;20025;-68
2022/11/02 02:01:01;;;;;;;9.52;6.10;;;;;;;;;;10411093;28;20469;-68
2022/11/02 02:06:05;;;;;;;9.67;6.27;;;;;;;;;;10398265;28;20033;-68
2022/11/02 02:11:23;;;;;;;8.73;5.63;;;;;;;;;;10393863;28;20184;-65
2022/11/02 02:16:36;;;;;;;8.10;5.13;;;;;;;;;;10410377;28;20030;-67
2022/11/02 02:21:55;;;;;;;8.05;5.60;;;;;;;;;;10399006;28;20148;-65
2022/11/02 02:27:02;;;;;;;7.13;5.13;;;;;;;;;;10412296;28;20041;-67
2022/11/02 02:32:03;;;;;;;7.50;5.37;;;;;;;;;;10411840;28;20052;-65
2022/11/02 02:37:08;;;;;;;8.80;5.53;;;;;;;;;;10407140;28;20029;-65
2022/11/02 02:42:18;;;;;;;7.82;5.57;;;;;;;;;;10403394;28;20030;-65
2022/11/02 02:47:20;;;;;;;9.35;5.65;;;;;;;;;;10409510;28;20021;-64
2022/11/02 02:52:22;;;;;;;7.95;5.75;;;;;;;;;;10409229;28;20436;-66
2022/11/02 02:57:24;;;;;;;8.65;5.47;;;;;;;;;;10397069;28;20049;-65
2022/11/02 03:02:32;;;;;;;9.15;5.80;;;;;;;;;;10410396;28;20029;-62
2022/11/02 03:07:33;;;;;;;7.47;5.40;;;;;;;;;;10409825;28;20022;-65
2022/11/02 03:12:36;;;;;;;10.65;5.32;;;;;;;;;;10396910;28;20037;-63
2022/11/02 03:17:48;;;;;;;6.88;4.88;;;;;;;;;;10410820;28;20040;-62
2022/11/02 03:22:49;;;;;;;5.95;4.88;;;;;;;;;;10409570;28;20160;-64
2022/11/02 03:27:53;;;;;;;6.95;5.30;;;;;;;;;;10396579;28;20550;-67
2022/11/02 03:32:59;;;;;;;6.10;4.50;;;;;;;;;;10397804;28;20114;-66
2022/11/02 03:38:06;;;;;;;6.30;4.88;;;;;;;;;;10395265;28;20042;-58
2022/11/02 03:43:07;;;;;;;6.88;4.50;;;;;;;;;;10398409;28;20029;-67
2022/11/02 03:48:08;;;;;;;8.05;4.32;;;;;;;;;;10407040;28;20026;-63
2022/11/02 03:53:11;;;;;;;7.40;4.57;;;;;;;;;;10393544;28;20029;-68
2022/11/02 03:58:11;;;;;;;6.57;5.07;;;;;;;;;;10391424;28;20049;-69
2022/11/02 04:03:12;;;;;;;5.32;4.45;;;;;;;;;;10408344;28;20511;-69
2022/11/02 04:08:20;;;;;;;5.78;4.65;;;;;;;;;;10408112;28;20404;-68
2022/11/02 04:29:16;;;;;;;5.95;5.07;;;;;;;;;;10390184;28;20037;-46
2022/11/02 04:34:17;;;;;;;6.60;4.53;;;;;;;;;;10405274;28;20041;-48
2022/11/02 04:39:17;;;;;;;6.00;4.95;;;;;;;;;;10394154;28;20036;-47
2022/11/02 04:44:17;;;;;;;6.22;4.95;;;;;;;;;;10388714;28;20107;-49
2022/11/02 04:49:17;;;;;;;6.03;4.60;;;;;;;;;;10403797;28;20021;-49
2022/11/02 04:54:18;;;;;;;9.73;5.23;;;;;;;;;;10406927;28;20025;-49
2022/11/02 04:59:18;;;;;;;4.75;4.28;;;;;;;;;;10406939;28;20048;-46
2022/11/02 05:04:18;;;;;;;9.70;5.18;;;;;;;;;;10406976;28;20025;-48
2022/11/02 05:09:18;;;;;;;6.55;4.50;;;;;;;;;;10409624;28;20460;-46
2022/11/02 05:14:19;;;;;;;5.35;4.50;;;;;;;;;;10414914;28;20936;-49
2022/11/02 05:19:19;;;;;;;9.15;4.47;;;;;;;;;;10414204;28;20045;-47
2022/11/02 05:24:19;;;;;;;5.45;4.55;;;;;;;;;;10402407;28;20057;-47
2022/11/02 05:29:20;;;;;;;6.05;4.18;;;;;;;;;;10413924;28;20034;-68
2022/11/02 05:34:20;;;;;;;4.38;3.97;;;;;;;;;;10414395;28;20033;-66
2022/11/02 05:39:20;;;;;;;5.30;4.18;;;;;;;;;;10392539;28;20478;-59
2022/11/02 05:44:20;;;;;;;4.20;3.55;;;;;;;;;;10394562;28;20409;-69
2022/11/02 05:49:21;;;;;;;4.83;4.27;;;;;;;;;;10412237;28;20400;-68
2022/11/02 05:54:21;;;;;;;4.90;4.03;;;;;;;;;;10413469;28;20025;-68
2022/11/02 05:59:21;;;;;;;4.10;3.70;;;;;;;;;;10412595;28;20056;-60
2022/11/02 06:04:22;;;;;;;5.80;4.10;;;;;;;;;;10400204;28;20029;-62
2022/11/02 06:09:22;;;;;;;4.82;4.13;;;;;;;;;;10412987;28;20025;-69
2022/11/02 06:14:22;;;;;;;4.57;4.05;;;;;;;;;;10399230;28;20128;-63
2022/11/02 06:19:23;;;;;;;4.28;3.60;;;;;;;;;;10406670;28;20362;-47
2022/11/02 06:24:23;;;;;;;7.65;3.97;;;;;;;;;;10406391;28;20165;-46
2022/11/02 06:29:23;;;;;;;5.70;4.40;;;;;;;;;;10411781;28;20022;-50
2022/11/02 06:34:24;;;;;;;8.93;4.03;;;;;;;;;;10412171;28;20037;-69
2022/11/02 06:39:24;;;;;;;8.20;4.70;;;;;;;;;;10411026;28;20408;-50
2022/11/02 06:44:24;;;;;;;6.05;3.85;;;;;;;;;;10403142;28;20042;-51
2022/11/02 06:49:24;;;;;;;8.32;4.03;;;;;;;;;;10403158;28;20087;-50
2022/11/02 06:54:25;;;;;;;4.70;3.97;;;;;;;;;;10410473;28;20033;-55
2022/11/02 06:59:25;;;;;;;5.53;3.92;;;;;;;;;;10422965;23;20459;-57
2022/11/02 07:04:25;;;;;;;8.68;4.38;;;;;;;;;;10400378;28;20036;-61
2022/11/02 07:09:26;;;;;;;6.53;5.00;;;;;;;;;;10405962;28;20025;-59
2022/11/02 07:14:26;;;;;;;7.75;5.18;;;;;;;;;;10394042;28;20036;-58
2022/11/02 07:19:26;;;;;;;8.65;6.18;;;;;;;;;;10399637;28;20017;-59
2022/11/02 07:24:26;;;;;;;13.05;6.38;;;;;;;;;;10409496;28;20061;-62
2022/11/02 07:29:27;;;;;;;9.73;6.13;;;;;;;;;;10409703;28;20538;-58
2022/11/02 07:34:27;;;;;;;19.08;7.40;;;;;;;;;;10396418;28;20029;-65
2022/11/02 07:39:27;;;;;;;15.63;7.57;;;;;;;;;;10383874;28;20025;-66
2022/11/02 07:44:29;;;;;;;13.68;6.65;;;;;;;;;;10394941;28;20833;-62
2022/11/02 07:49:30;;;;;;;12.35;6.80;;;;;;;;;;10406720;28;20109;-64
2022/11/02 07:54:30;;;;;;;14.20;7.38;;;;;;;;;;10408932;28;20392;-58
2022/11/02 07:59:30;;;;;;;12.80;6.28;;;;;;;;;;10375134;28;20585;-62
2022/11/02 08:04:30;;;;;;;10.75;6.35;;;;;;;;;;10388251;28;20040;-63
2022/11/02 08:09:31;;;;;;;8.50;6.20;;;;;;;;;;10376415;28;20242;-63
2022/11/02 08:14:31;;;;;;;9.38;6.55;;;;;;;;;;10376362;28;20021;-63
2022/11/02 08:19:31;;;;;;;12.05;6.85;;;;;;;;;;10376264;28;20017;-61
2022/11/02 08:24:32;;;;;;;12.35;7.15;;;;;;;;;;10377774;28;20021;-60
2022/11/02 08:29:33;;;;;;;12.32;6.90;;;;;;;;;;10373675;28;20022;-61
2022/11/02 08:34:33;;;;;;;10.32;7.03;;;;;;;;;;10373662;28;20033;-55
2022/11/02 08:39:33;;;;;;;16.45;7.78;;;;;;;;;;10376089;28;20022;-57
2022/11/02 08:44:34;;;;;;;15.00;8.02;;;;;;;;;;10373214;28;20029;-56
2022/11/02 08:49:34;;;;;;;9.57;6.93;;;;;;;;;;10398309;28;20038;-56
2022/11/02 08:54:34;;;;;;;9.40;6.97;;;;;;;;;;10398320;28;20036;-61
2022/11/02 08:59:34;;;;;;;11.57;7.43;;;;;;;;;;10401299;28;20041;-61
2022/11/02 09:04:35;;;;;;;8.70;6.82;;;;;;;;;;10384988;28;20416;-60
2022/11/02 09:09:35;;;;;;;12.93;6.80;;;;;;;;;;10369883;28;20392;-61
2022/11/02 09:14:35;;;;;;;10.93;7.57;;;;;;;;;;10387807;28;20389;-61
2022/11/02 09:19:35;;;;;;;10.10;7.05;;;;;;;;;;10374673;28;20017;-56
2022/11/02 09:24:39;;;;;;;10.02;6.70;;;;;;;;;;10376535;28;20140;-62
2022/11/02 09:29:39;;;;;;;9.98;6.38;;;;;;;;;;10394818;28;20850;-62
2022/11/02 09:34:40;;;;;;;11.60;7.03;;;;;;;;;;10394633;28;20038;-64
2022/11/02 09:39:40;;;;;;;11.70;7.27;;;;;;;;;;10389781;28;20037;-59
2022/11/02 09:44:46;;;;;;;8.85;6.40;;;;;;;;;;10383588;28;20030;-64
2022/11/02 09:49:46;;;;;;;9.15;6.50;;;;;;;;;;10377612;28;20021;-58
2022/11/02 09:54:49;;;;;;;12.00;7.20;;;;;;;;;;10382149;28;20030;-63
2022/11/02 09:59:49;;;;;;;9.95;6.38;;;;;;;;;;10382223;28;20049;-63
2022/11/02 10:05:01;;;;;;;9.85;6.72;;;;;;;;;;10377839;28;20037;-57
2022/11/02 10:10:04;;;;;;;9.27;6.38;;;;;;;;;;10375956;28;20010;-61
2022/11/02 10:15:08;;;;;;;14.88;6.90;;;;;;;;;;10377481;28;20041;-61
2022/11/02 10:20:31;;;;;;;9.18;6.45;;;;;;;;;;10378161;28;20041;-60
2022/11/02 10:25:32;;;;;;;10.55;6.50;;;;;;;;;;10410284;28;20025;-61
2022/11/02 10:30:32;;;;;;;10.25;7.25;;;;;;;;;;10395177;28;20045;-62
2022/11/02 10:35:37;;;;;;;10.57;7.03;;;;;;;;;;10381231;28;20039;-63
2022/11/02 10:40:49;;;;;;;12.98;7.47;;;;;;;;;;10391826;28;20137;-63
2022/11/02 10:45:56;;;;;;;13.63;7.13;;;;;;;;;;10381228;28;20076;-55
2022/11/02 10:50:56;;;;;;;11.70;7.22;;;;;;;;;;10397157;28;20260;-54
2022/11/02 10:56:02;;;;;;;10.90;7.22;;;;;;;;;;10416998;28;20612;-60
2022/11/02 11:01:09;;;;;;;10.25;7.40;;;;;;;;;;10417706;28;20061;-62
2022/11/02 11:06:11;;;;;;;14.50;7.00;;;;;;;;;;10408516;28;20029;-62
2022/11/02 11:11:11;;;;;;;13.10;7.88;;;;;;;;;;10409942;28;20389;-64
2022/11/02 11:16:11;;;;;;;10.82;6.85;;;;;;;;;;10416994;28;20033;-59
2022/11/02 11:21:12;;;;;;;13.07;7.60;;;;;;;;;;10409372;28;20472;-63
2022/11/02 11:26:25;;;;;;;11.07;7.23;;;;;;;;;;10409530;28;20485;-63
2022/11/02 11:31:25;;;;;;;8.68;6.63;;;;;;;;;;10409234;28;20084;-62
2022/11/02 11:36:32;;;;;;;12.10;7.20;;;;;;;;;;10409125;28;20049;-63
2022/11/02 11:41:33;;;;;;;12.60;7.13;;;;;;;;;;10413559;28;20021;-63
2022/11/02 11:46:40;;;;;;;9.45;6.43;;;;;;;;;;10395719;28;20033;-64
2022/11/02 11:51:42;;;;;;;8.20;6.93;;;;;;;;;;10407303;28;20037;-64
2022/11/02 11:56:42;;;;;;;11.73;6.82;;;;;;;;;;10409686;28;20075;-65
2022/11/02 12:01:42;;;;;;;9.50;6.30;;;;;;;;;;10409314;28;20152;-63
2022/11/02 12:06:59;;;;;;;10.77;6.77;;;;;;;;;;10405393;28;20030;-61
2022/11/02 12:12:03;;;;;;;9.25;6.47;;;;;;;;;;10394937;28;20034;-61
2022/11/02 12:17:22;;;;;;;11.57;6.90;;;;;;;;;;10391104;28;20543;-63
2022/11/02 12:22:27;;;;;;;8.95;6.05;;;;;;;;;;10368110;28;20164;-62
2022/11/02 12:27:35;;;;;;;10.23;6.20;;;;;;;;;;10411030;28;20029;-63
2022/11/02 12:32:54;;;;;;;11.50;6.95;;;;;;;;;;10404510;28;20029;-63
2022/11/02 12:38:02;;;;;;;10.48;6.00;;;;;;;;;;10407091;28;20068;-64
2022/11/02 12:43:27;;;;;;;8.00;6.13;;;;;;;;;;10403955;28;20038;-64
2022/11/02 12:48:46;;;;;;;9.27;6.28;;;;;;;;;;10413420;28;20029;-60
2022/11/02 12:53:52;;;;;;;11.63;7.10;;;;;;;;;;10391663;28;20061;-64
2022/11/02 12:58:53;;;;;;;9.38;6.15;;;;;;;;;;10405986;28;20125;-64
2022/11/02 13:04:01;;;;;;;8.80;6.22;;;;;;;;;;10392368;28;20434;-64
2022/11/02 13:09:02;;;;;;;;;;;;;;;;;;10378525;28;20050;-64
2022/11/02 13:14:04;;;;;;;9.40;6.65;;;;;;;;;;10372116;28;19925;-64
2022/11/02 13:19:11;;;;;;;13.55;6.90;;;;;;;;;;10404940;28;20033;-62
2022/11/02 13:24:15;;;;;;;9.57;7.43;;;;;;;;;;10404237;28;20057;-61
2022/11/02 13:29:18;;;;;;;9.00;6.78;;;;;;;;;;10367794;28;20042;-57
2022/11/02 13:34:26;;;;;;;11.20;7.38;;;;;;;;;;10387994;28;20431;-63
2022/11/02 13:39:38;;;;;;;10.68;7.18;;;;;;;;;;10405080;28;20029;-61
2022/11/02 13:44:56;;;;;;;10.18;7.45;;;;;;;;;;10403069;28;20026;-58
2022/11/02 13:49:57;;;;;;;12.25;7.75;;;;;;;;;;10402910;28;20034;-62
2022/11/02 13:54:59;;;;;;;10.95;7.78;;;;;;;;;;10403761;28;20100;-57
2022/11/02 14:00:01;;;;;;;11.13;7.22;;;;;;;;;;10407639;28;20037;-62
2022/11/02 14:05:01;;;;;;;9.63;7.03;;;;;;;;;;10411359;28;20033;-63
2022/11/02 14:10:28;;;;;;;11.95;6.97;;;;;;;;;;10411996;28;20499;-62
2022/11/02 14:15:31;;;;;;;10.07;7.78;;;;;;;;;;10410109;28;20065;-62
2022/11/02 14:20:32;;;;;;;15.77;7.72;;;;;;;;;;10412088;28;20468;-63
2022/11/02 14:25:45;;;;;;;12.57;8.23;;;;;;;;;;10412513;28;20025;-64
2022/11/02 14:30:47;;;;;;;10.68;6.97;;;;;;;;;;10406523;28;20338;-58
2022/11/02 14:35:59;;;;;;;13.88;8.13;;;;;;;;;;10411693;28;20025;-61
2022/11/02 14:41:18;;;;;;;17.80;8.43;;;;;;;;;;10410685;28;20022;-55
2022/11/02 14:46:27;;;;;;;11.02;7.15;;;;;;;;;;10398412;28;20094;-60
2022/11/02 14:51:30;;;;;;;13.63;7.80;;;;;;;;;;10409695;28;20029;-61
2022/11/02 14:56:47;;;;;;;10.65;7.60;;;;;;;;;;10397477;28;20037;-63
2022/11/02 15:01:55;;;;;;;12.10;7.80;;;;;;;;;;10410600;28;20041;-61
2022/11/02 15:06:57;;;;;;;10.20;7.40;;;;;;;;;;10410537;28;20060;-62
2022/11/02 15:11:59;;;;;;;10.43;7.20;;;;;;;;;;10410329;28;20029;-57
2022/11/02 15:16:59;;;;;;;11.07;8.10;;;;;;;;;;10409919;28;20033;-61
2022/11/02 15:22:18;;;;;;;11.68;7.70;;;;;;;;;;10396539;28;20390;-63
2022/11/02 15:27:19;;;;;;;12.48;8.07;;;;;;;;;;10409479;28;20022;-60
2022/11/02 15:32:22;;;;;;;9.88;8.05;;;;;;;;;;10409244;28;20029;-62
2022/11/02 15:37:24;;;;;;;13.80;8.07;;;;;;;;;;10409185;28;20035;-59
2022/11/02 15:42:47;;;;;;;17.40;8.57;;;;;;;;;;10409116;28;20411;-64
2022/11/02 15:47:53;;;;;;;13.40;8.77;;;;;;;;;;10394736;28;20021;-62
2022/11/02 15:53:02;;;;;;;14.38;8.75;;;;;;;;;;10397701;28;20029;-61
2022/11/02 15:58:21;;;;;;;16.33;8.20;;;;;;;;;;10404595;28;20444;-63
2022/11/02 16:03:21;;;;;;;12.57;7.72;;;;;;;;;;10408600;28;20045;-63
2022/11/02 16:08:23;;;;;;;15.77;8.15;;;;;;;;;;10408538;28;20034;-63
2022/11/02 16:13:23;;;;;;;11.70;8.10;;;;;;;;;;10407820;28;20027;-63
2022/11/02 16:18:23;;;;;;;12.52;7.80;;;;;;;;;;10407666;28;20032;-63
2022/11/02 16:23:25;;;;;;;11.50;8.15;;;;;;;;;;10407801;28;20021;-63
2022/11/02 16:28:26;;;;;;;13.88;8.00;;;;;;;;;;10401357;28;20358;-62
2022/11/02 16:33:29;;;;;;;10.63;7.50;;;;;;;;;;10400665;28;20028;-60
2022/11/02 16:38:29;;;;;;;12.95;7.15;;;;;;;;;;10407463;28;20057;-61
2022/11/02 16:43:29;;;;;;;18.05;8.10;;;;;;;;;;10402889;28;20049;-61
2022/11/02 16:48:33;;;;;;;14.73;7.57;;;;;;;;;;10394745;28;20033;-61
2022/11/02 16:53:36;;;;;;;11.88;7.93;;;;;;;;;;10406227;28;20469;-61
2022/11/02 16:58:36;;;;;;;14.70;7.65;;;;;;;;;;10405715;28;20081;-62
2022/11/02 17:03:36;;;;;;;11.52;8.57;;;;;;;;;;10407576;28;20049;-60
2022/11/02 17:08:38;;;;;;;12.82;7.78;;;;;;;;;;10414951;28;20029;-60
2022/11/02 17:13:43;;;;;;;11.52;8.10;;;;;;;;;;10415258;28;20037;-60
2022/11/02 17:18:43;;;;;;;9.48;7.40;;;;;;;;;;10415389;28;20097;-60
2022/11/02 17:23:45;;;;;;;10.80;7.22;;;;;;;;;;10415287;28;20104;-61
2022/11/02 17:28:45;;;;;;;12.52;7.97;;;;;;;;;;10415053;28;20508;-61
2022/11/02 17:33:46;;;;;;;15.10;7.70;;;;;;;;;;10414368;28;20075;-61
2022/11/02 17:38:46;;;;;;;11.73;8.43;;;;;;;;;;10414707;28;20028;-61
2022/11/02 17:43:46;;;;;;;12.80;8.63;;;;;;;;;;10411589;28;20357;-61
2022/11/02 17:48:47;;;;;;;12.07;7.22;;;;;;;;;;10402238;28;21403;-58
2022/11/02 17:53:48;;;;;;;12.23;7.87;;;;;;;;;;10414083;28;20059;-61
2022/11/02 17:58:48;;;;;;;10.10;7.38;;;;;;;;;;10402499;28;20478;-60
2022/11/02 18:03:48;;;;;;;9.40;7.18;;;;;;;;;;10406345;28;20480;-60
2022/11/02 18:14:11;;;;;;;9.88;6.75;;;;;;;;;;10411814;28;20504;-60
2022/11/02 18:19:11;;;;;;;10.55;7.25;;;;;;;;;;10411263;28;20103;-61
2022/11/02 18:24:12;;;;;;;10.40;6.97;;;;;;;;;;10412598;28;20124;-60
2022/11/02 18:29:12;;;;;;;8.75;6.88;;;;;;;;;;10412726;28;20358;-59
2022/11/02 18:34:12;;;;;;;10.68;7.22;;;;;;;;;;10410843;28;20038;-56
2022/11/02 18:39:12;;;;;;;9.03;7.40;;;;;;;;;;10406204;28;20122;-60
2022/11/02 18:44:13;;;;;;;10.43;6.90;;;;;;;;;;10404760;28;20034;-56
2022/11/02 18:49:13;;;;;;;10.23;7.13;;;;;;;;;;10392149;28;20088;-58
2022/11/02 18:54:14;;;;;;;9.95;7.32;;;;;;;;;;10405782;28;20025;-63
2022/11/02 18:59:14;;;;;;;16.07;6.80;;;;;;;;;;10390523;28;20045;-62
2022/11/02 19:04:14;;;;;;;9.20;7.15;;;;;;;;;;10405477;28;20512;-64
2022/11/02 19:09:18;;;;;;;11.30;6.75;;;;;;;;;;10395213;28;20032;-60
2022/11/02 19:14:19;;;;;;;9.90;7.05;;;;;;;;;;10399871;28;20033;-58
2022/11/02 19:19:20;;;;;;;13.55;7.82;;;;;;;;;;10392033;28;20030;-61
2022/11/02 19:24:20;;;;;;;17.93;7.93;;;;;;;;;;10415473;28;20026;-62
2022/11/02 19:29:21;;;;;;;14.95;7.45;;;;;;;;;;10394890;28;20446;-62
2022/11/02 19:34:24;;;;;;;13.40;7.30;;;;;;;;;;10397982;28;20032;-62
2022/11/02 19:39:24;;;;;;;11.15;7.00;;;;;;;;;;10399507;28;20032;-63
2022/11/02 19:44:25;;;;;;;13.90;7.67;;;;;;;;;;10401539;28;20490;-59
2022/11/02 19:49:25;;;;;;;12.32;7.47;;;;;;;;;;10403083;28;20485;-60
2022/11/02 19:54:25;;;;;;;10.57;7.25;;;;;;;;;;10409110;28;20029;-61
2022/11/02 19:59:27;;;;;;;7.85;6.72;;;;;;;;;;10382855;28;20045;-56
2022/11/02 20:04:27;;;;;;;11.88;7.03;;;;;;;;;;10396629;28;20026;-60
2022/11/02 20:09:28;;;;;;;12.10;7.20;;;;;;;;;;10408170;28;20473;-65
2022/11/02 20:14:28;;;;;;;11.18;6.90;;;;;;;;;;10410566;28;20398;-64
2022/11/02 20:19:28;;;;;;;11.00;6.53;;;;;;;;;;10404568;28;20080;-62
2022/11/02 20:24:29;;;;;;;11.00;6.80;;;;;;;;;;10394937;28;20079;-59
2022/11/02 20:29:29;;;;;;;8.80;6.90;;;;;;;;;;10390293;28;20552;-56
2022/11/02 20:34:29;;;;;;;9.85;6.68;;;;;;;;;;10388974;28;20053;-49
2022/11/02 20:39:30;;;;;;;14.60;6.73;;;;;;;;;;10406777;28;20033;-49
2022/11/02 20:44:30;;;;;;;8.48;6.28;;;;;;;;;;10381694;28;20061;-55
2022/11/02 20:49:30;;;;;;;11.20;7.07;;;;;;;;;;10388553;28;20025;-52
2022/11/02 20:54:30;;;;;;;9.03;6.37;;;;;;;;;;10375757;28;20041;-48
2022/11/02 20:59:31;;;;;;;10.80;6.70;;;;;;;;;;10369455;28;20467;-49
2022/11/02 21:04:31;;;;;;;11.95;6.30;;;;;;;;;;10373471;28;20161;-48
2022/11/02 21:09:31;;;;;;;9.88;6.68;;;;;;;;;;10383946;28;20653;-52
2022/11/02 21:14:32;;;;;;;9.97;6.83;;;;;;;;;;10371812;28;20026;-48
2022/11/02 21:19:32;;;;;;;10.20;6.32;;;;;;;;;;10370866;28;20048;-49
2022/11/02 21:24:33;;;;;;;12.93;6.85;;;;;;;;;;10383955;28;20107;-64
2022/11/02 21:29:36;;;;;;;7.97;6.40;;;;;;;;;;10406382;28;20058;-60
2022/11/02 21:34:36;;;;;;;18.10;6.82;;;;;;;;;;10398690;28;20113;-62
2022/11/02 21:39:37;;;;;;;20.95;7.68;;;;;;;;;;10392747;28;20445;-63
2022/11/02 21:44:37;;;;;;;15.57;6.70;;;;;;;;;;10394953;28;20030;-62
2022/11/02 21:49:37;;;;;;;11.65;7.43;;;;;;;;;;10379434;28;20713;-62
2022/11/02 21:54:38;;;;;;;13.47;6.40;;;;;;;;;;10414423;28;20123;-63
2022/11/02 21:59:38;;;;;;;11.48;5.53;;;;;;;;;;10404310;28;20523;-61
2022/11/02 22:04:38;;;;;;;11.38;6.15;;;;;;;;;;10411035;28;20033;-62
2022/11/02 22:09:38;;;;;;;15.07;6.70;;;;;;;;;;10412411;28;20552;-63
2022/11/02 22:14:39;;;;;;;16.47;6.23;;;;;;;;;;10413360;28;20087;-59
2022/11/02 22:19:40;;;;;;;18.05;6.38;;;;;;;;;;10397797;28;20036;-58
2022/11/02 22:24:40;;;;;;;11.45;5.50;;;;;;;;;;10412151;28;20036;-58
2022/11/02 22:29:40;;;;;;;11.40;5.80;;;;;;;;;;10412507;28;20188;-48
2022/11/02 22:34:42;;;;;;;10.77;5.50;;;;;;;;;;10411981;28;20120;-47
2022/11/02 22:39:42;;;;;;;10.75;5.43;;;;;;;;;;10411226;28;20030;-49
2022/11/02 22:44:43;;;;;;;13.48;5.35;;;;;;;;;;10400037;28;20092;-49
2022/11/02 22:49:43;;;;;;;14.15;5.82;;;;;;;;;;10405876;28;20057;-57
2022/11/02 22:54:43;;;;;;;10.85;5.18;;;;;;;;;;10411033;28;20502;-49
2022/11/02 22:59:43;;;;;;;9.68;5.20;;;;;;;;;;10400457;28;20531;-58
2022/11/02 23:04:44;;;;;;;7.90;5.20;;;;;;;;;;10379330;28;20439;-49
2022/11/02 23:09:44;;;;;;;6.00;4.80;;;;;;;;;;10384673;28;20401;-51
2022/11/02 23:14:44;;;;;;;8.15;5.25;;;;;;;;;;10380914;28;20030;-63
2022/11/02 23:19:44;;;;;;;12.30;5.43;;;;;;;;;;10403181;28;20131;-48
2022/11/02 23:40:43;;;;;;;8.00;4.53;;;;;;;;;;10409971;28;20041;-53
2022/11/02 23:45:43;;;;;;;8.13;5.03;;;;;;;;;;10408688;28;20105;-48
